createdAt,value
2019-02-15T00:00:40.731Z,4.40
2019-02-15T00:03:10.175Z,4.40
2019-02-15T00:05:39.594Z,4.50
2019-02-15T00:08:09.026Z,4.50
2019-02-15T00:10:38.451Z,4.50
2019-02-15T00:13:13.534Z,4.50
2019-02-15T00:15:39.057Z,4.50
2019-02-15T00:18:08.267Z,4.50
2019-02-15T00:20:45.051Z,4.50
2019-02-15T00:23:14.485Z,4.40
2019-02-15T00:25:43.922Z,4.40
2019-02-15T00:28:13.371Z,4.30
2019-02-15T00:30:42.960Z,4.30
2019-02-15T00:33:12.396Z,4.30
2019-02-15T00:35:41.842Z,4.30
2019-02-15T00:38:11.277Z,4.30
2019-02-15T00:40:40.697Z,4.30
2019-02-15T00:43:10.129Z,4.20
2019-02-15T00:45:43.627Z,4.10
2019-02-15T00:48:14.694Z,4.10
2019-02-15T00:50:51.787Z,3.90
2019-02-15T00:53:25.690Z,3.80
2019-02-15T00:55:59.369Z,3.80
2019-02-15T00:58:30.449Z,3.70
2019-02-15T01:01:07.158Z,3.70
2019-02-15T01:03:40.671Z,3.70
2019-02-15T01:06:26.534Z,3.50
2019-02-15T01:09:03.374Z,3.50
2019-02-15T01:11:40.275Z,3.60
2019-02-15T01:14:09.698Z,3.60
2019-02-15T01:16:39.140Z,3.60
2019-02-15T01:19:08.561Z,3.60
2019-02-15T01:21:38.012Z,3.60
2019-02-15T01:24:07.432Z,3.70
2019-02-15T01:26:38.485Z,3.70
2019-02-15T01:29:09.583Z,3.70
2019-02-15T01:31:43.424Z,3.70
2019-02-15T01:34:17.151Z,3.60
2019-02-15T01:36:48.230Z,3.60
2019-02-15T01:39:31.298Z,3.60
2019-02-15T01:42:08.126Z,3.60
2019-02-15T01:44:39.186Z,3.60
2019-02-15T01:47:10.263Z,3.70
2019-02-15T01:49:39.764Z,3.70
2019-02-15T01:52:09.200Z,3.70
2019-02-15T01:54:38.645Z,3.80
2019-02-15T01:57:08.080Z,3.80
2019-02-15T01:59:37.522Z,3.60
2019-02-15T02:02:06.937Z,3.50
2019-02-15T02:04:36.360Z,3.30
2019-02-15T02:07:05.791Z,3.30
2019-02-15T02:09:35.278Z,3.30
2019-02-15T02:12:05.591Z,3.20
2019-02-15T02:14:35.015Z,3.10
2019-02-15T02:17:04.432Z,3.10
2019-02-15T02:19:34.109Z,3.10
2019-02-15T02:22:03.603Z,3.10
2019-02-15T02:24:33.037Z,3.20
2019-02-15T02:27:02.455Z,3.30
2019-02-15T02:29:31.892Z,3.30
2019-02-15T02:32:01.322Z,3.30
2019-02-15T02:34:30.765Z,3.30
2019-02-15T02:37:00.221Z,3.30
2019-02-15T02:39:29.625Z,3.30
2019-02-15T02:41:59.039Z,3.30
2019-02-15T02:44:28.507Z,3.30
2019-02-15T02:46:57.922Z,3.30
2019-02-15T02:49:27.390Z,3.30
2019-02-15T02:51:56.873Z,3.20
2019-02-15T02:54:26.320Z,3.30
2019-02-15T02:56:55.736Z,3.30
2019-02-15T02:59:25.189Z,3.30
2019-02-15T03:01:54.607Z,3.30
2019-02-15T03:04:24.039Z,3.30
2019-02-15T03:06:53.469Z,3.20
2019-02-15T03:09:22.948Z,3.20
2019-02-15T03:11:52.415Z,3.10
2019-02-15T03:14:21.848Z,3.10
2019-02-15T03:16:51.266Z,3.10
2019-02-15T03:19:20.726Z,3.10
2019-02-15T03:21:50.140Z,3.20
2019-02-15T03:24:19.597Z,3.20
2019-02-15T03:26:49.023Z,3.20
2019-02-15T03:29:18.455Z,3.20
2019-02-15T03:31:47.877Z,3.20
2019-02-15T03:34:17.342Z,3.20
2019-02-15T03:36:48.406Z,3.20
2019-02-15T03:39:28.160Z,3.20
2019-02-15T03:41:57.597Z,3.20
2019-02-15T03:44:27.115Z,3.10
2019-02-15T03:46:56.573Z,3.10
2019-02-15T03:49:25.963Z,3.00
2019-02-15T03:51:55.391Z,3.00
2019-02-15T03:54:24.835Z,3.00
2019-02-15T03:56:54.257Z,3.00
2019-02-15T03:59:23.689Z,3.00
2019-02-15T04:01:53.124Z,2.90
2019-02-15T04:04:22.563Z,2.90
2019-02-15T04:06:52.002Z,2.80
2019-02-15T04:09:21.477Z,2.80
2019-02-15T04:11:50.879Z,2.70
2019-02-15T04:14:20.309Z,2.70
2019-02-15T04:16:49.846Z,2.50
2019-02-15T04:19:19.283Z,2.50
2019-02-15T04:21:48.728Z,2.40
2019-02-15T04:24:18.195Z,2.40
2019-02-15T04:26:47.602Z,2.50
2019-02-15T04:29:17.034Z,2.50
2019-02-15T04:31:46.463Z,2.60
2019-02-15T04:34:15.896Z,2.60
2019-02-15T04:36:45.321Z,2.50
2019-02-15T04:39:14.757Z,2.40
2019-02-15T04:41:44.251Z,2.40
2019-02-15T04:44:13.698Z,2.20
2019-02-15T04:46:43.182Z,2.20
2019-02-15T04:49:12.674Z,2.20
2019-02-15T04:51:42.111Z,2.20
2019-02-15T04:54:11.551Z,2.30
2019-02-15T04:56:40.987Z,2.30
2019-02-15T04:59:10.425Z,2.30
2019-02-15T05:01:39.851Z,2.30
2019-02-15T05:04:09.277Z,2.30
2019-02-15T05:06:38.699Z,2.30
2019-02-15T05:09:08.148Z,2.40
2019-02-15T05:11:37.584Z,2.40
2019-02-15T05:14:07.080Z,2.40
2019-02-15T05:16:36.504Z,2.40
2019-02-15T05:19:05.937Z,2.50
2019-02-15T05:21:35.364Z,2.50
2019-02-15T05:24:04.798Z,2.50
2019-02-15T05:26:34.246Z,2.60
2019-02-15T05:29:03.693Z,2.60
2019-02-15T05:31:33.129Z,2.50
2019-02-15T05:34:02.589Z,2.60
2019-02-15T05:36:32.023Z,2.60
2019-02-15T05:39:01.459Z,2.60
2019-02-15T05:41:30.899Z,2.60
2019-02-15T05:44:00.367Z,2.60
2019-02-15T05:46:29.789Z,2.60
2019-02-15T05:48:59.211Z,2.60
2019-02-15T05:51:28.645Z,2.60
2019-02-15T05:53:58.094Z,2.50
2019-02-15T05:56:27.521Z,2.50
2019-02-15T05:58:56.956Z,2.50
2019-02-15T06:01:27.643Z,2.50
2019-02-15T06:03:57.092Z,2.50
2019-02-15T06:06:26.539Z,2.50
2019-02-15T06:08:55.983Z,2.40
2019-02-15T06:11:25.428Z,2.30
2019-02-15T06:13:54.849Z,2.30
2019-02-15T06:16:24.293Z,2.30
2019-02-15T06:18:53.726Z,2.30
2019-02-15T06:21:23.173Z,2.30
2019-02-15T06:23:52.668Z,2.30
2019-02-15T06:26:22.102Z,2.30
2019-02-15T06:28:51.533Z,2.30
2019-02-15T06:31:20.988Z,2.20
2019-02-15T06:33:50.415Z,2.20
2019-02-15T06:36:19.865Z,2.20
2019-02-15T06:38:49.286Z,2.30
2019-02-15T06:41:18.743Z,2.20
2019-02-15T06:43:48.164Z,2.20
2019-02-15T06:46:17.619Z,2.20
2019-02-15T06:48:47.048Z,2.30
2019-02-15T06:51:16.508Z,2.40
2019-02-15T06:53:45.937Z,2.50
2019-02-15T06:56:15.430Z,2.60
2019-02-15T06:58:46.473Z,2.60
2019-02-15T07:01:17.553Z,2.70
2019-02-15T07:04:00.415Z,2.80
2019-02-15T07:06:29.875Z,2.80
2019-02-15T07:08:59.301Z,2.90
2019-02-15T07:11:28.753Z,2.90
2019-02-15T07:13:58.189Z,3.00
2019-02-15T07:16:27.627Z,3.00
2019-02-15T07:18:57.049Z,3.00
2019-02-15T07:21:26.494Z,3.10
2019-02-15T07:23:55.926Z,3.10
2019-02-15T07:26:25.371Z,3.20
2019-02-15T07:28:54.897Z,3.20
2019-02-15T07:31:24.350Z,3.30
2019-02-15T07:33:53.773Z,3.30
2019-02-15T07:36:23.216Z,3.30
2019-02-15T07:38:52.827Z,3.20
2019-02-15T07:41:22.283Z,3.30
2019-02-15T07:43:51.717Z,3.40
2019-02-15T07:46:21.165Z,3.50
2019-02-15T07:48:50.607Z,3.60
2019-02-15T07:51:20.068Z,3.60
2019-02-15T07:53:49.506Z,4.00
2019-02-15T07:56:18.941Z,4.40
2019-02-15T07:58:48.375Z,4.80
2019-02-15T08:01:17.821Z,5.30
2019-02-15T08:03:47.272Z,5.90
2019-02-15T08:06:16.697Z,6.70
2019-02-15T08:08:46.103Z,7.50
2019-02-15T08:11:15.556Z,8.30
2019-02-15T08:13:44.990Z,9.20
2019-02-15T08:16:14.427Z,9.80
2019-02-15T08:18:43.846Z,10.40
2019-02-15T08:21:13.389Z,10.80
2019-02-15T08:23:42.803Z,11.30
2019-02-15T08:26:12.248Z,11.70
2019-02-15T08:28:41.703Z,11.90
2019-02-15T08:31:11.166Z,11.90
2019-02-15T08:33:40.598Z,12.20
2019-02-15T08:36:10.056Z,12.70
2019-02-15T08:38:39.495Z,13.20
2019-02-15T08:41:08.965Z,13.40
2019-02-15T08:43:38.391Z,13.80
2019-02-15T08:46:07.842Z,14.00
2019-02-15T08:48:45.718Z,14.10
2019-02-15T08:51:08.439Z,13.90
2019-02-15T08:53:37.893Z,13.90
2019-02-15T08:56:07.331Z,14.10
2019-02-15T08:58:36.778Z,14.10
2019-02-15T09:01:06.225Z,14.30
2019-02-15T09:03:35.654Z,14.30
2019-02-15T09:06:05.086Z,14.50
2019-02-15T09:08:34.537Z,14.90
2019-02-15T09:11:03.969Z,15.30
2019-02-15T09:13:33.427Z,15.50
2019-02-15T09:16:09.981Z,15.80
2019-02-15T09:18:34.042Z,16.00
2019-02-15T09:21:03.473Z,16.20
2019-02-15T09:23:32.911Z,16.30
2019-02-15T09:26:02.359Z,16.40
2019-02-15T09:28:40.283Z,16.40
2019-02-15T09:31:09.702Z,16.40
2019-02-15T09:33:39.152Z,16.20
2019-02-15T09:36:08.578Z,16.20
2019-02-15T09:38:38.031Z,16.30
2019-02-15T09:41:07.462Z,16.50
2019-02-15T09:43:36.926Z,16.70
2019-02-15T09:46:06.361Z,16.80
2019-02-15T09:48:35.826Z,16.90
2019-02-15T09:51:05.254Z,16.90
2019-02-15T09:53:34.720Z,17.10
2019-02-15T09:56:04.164Z,17.00
2019-02-15T09:58:33.784Z,17.20
2019-02-15T10:01:03.213Z,17.30
2019-02-15T10:03:32.699Z,17.40
2019-02-15T10:06:02.138Z,17.50
2019-02-15T10:08:31.578Z,17.50
2019-02-15T10:11:01.029Z,17.70
2019-02-15T10:13:30.457Z,17.70
2019-02-15T10:15:59.910Z,17.80
2019-02-15T10:18:39.137Z,17.90
2019-02-15T10:21:08.579Z,18.20
2019-02-15T10:23:38.017Z,18.30
2019-02-15T10:26:07.472Z,18.40
2019-02-15T10:28:36.913Z,18.40
2019-02-15T10:31:06.359Z,18.50
2019-02-15T10:33:35.824Z,18.50
2019-02-15T10:36:05.287Z,18.40
2019-02-15T10:38:34.738Z,18.50
2019-02-15T10:41:04.183Z,18.50
2019-02-15T10:43:33.635Z,18.60
2019-02-15T10:46:03.070Z,18.50
2019-02-15T10:48:32.510Z,18.60
2019-02-15T10:51:02.026Z,18.80
2019-02-15T10:53:31.469Z,18.80
2019-02-15T10:56:00.930Z,18.90
2019-02-15T10:58:30.362Z,18.90
2019-02-15T11:00:59.818Z,19.10
2019-02-15T11:03:29.285Z,19.10
2019-02-15T11:05:58.728Z,19.20
2019-02-15T11:08:28.149Z,19.00
2019-02-15T11:10:57.606Z,19.20
2019-02-15T11:13:27.038Z,19.20
2019-02-15T11:15:56.482Z,19.30
2019-02-15T11:18:28.335Z,19.20
2019-02-15T11:20:57.776Z,19.30
2019-02-15T11:23:27.218Z,19.50
2019-02-15T11:25:56.661Z,19.70
2019-02-15T11:28:26.127Z,19.90
2019-02-15T11:30:55.567Z,20.10
2019-02-15T11:33:24.991Z,20.20
2019-02-15T11:35:54.451Z,20.30
2019-02-15T11:38:23.876Z,20.40
2019-02-15T11:40:53.323Z,20.40
2019-02-15T11:43:22.758Z,20.20
2019-02-15T11:45:52.207Z,20.00
2019-02-15T11:48:22.648Z,19.90
2019-02-15T11:50:52.113Z,20.00
2019-02-15T11:53:21.542Z,20.20
2019-02-15T11:55:51.021Z,20.20
2019-02-15T11:58:20.440Z,20.30
2019-02-15T12:00:49.904Z,20.30
2019-02-15T12:03:19.347Z,20.10
2019-02-15T12:05:48.775Z,19.90
2019-02-15T12:08:18.221Z,19.90
2019-02-15T12:10:47.647Z,19.90
2019-02-15T12:13:17.091Z,19.80
2019-02-15T12:15:46.590Z,19.70
2019-02-15T12:18:16.037Z,19.60
2019-02-15T12:20:45.476Z,19.50
2019-02-15T12:23:14.940Z,19.40
2019-02-15T12:25:44.374Z,19.20
2019-02-15T12:28:13.833Z,19.10
2019-02-15T12:30:43.293Z,18.90
2019-02-15T12:33:12.707Z,18.70
2019-02-15T12:35:42.128Z,18.50
2019-02-15T12:38:11.633Z,18.40
2019-02-15T12:40:41.048Z,18.30
2019-02-15T12:43:10.514Z,18.30
2019-02-15T12:45:40.019Z,18.20
2019-02-15T12:48:09.528Z,18.30
2019-02-15T12:50:38.909Z,18.30
2019-02-15T12:53:08.369Z,18.30
2019-02-15T12:55:37.810Z,18.20
2019-02-15T12:58:07.268Z,18.00
2019-02-15T13:00:36.761Z,18.00
2019-02-15T13:03:06.216Z,18.00
2019-02-15T13:05:35.645Z,17.80
2019-02-15T13:08:05.269Z,17.70
2019-02-15T13:10:36.337Z,17.70
2019-02-15T13:13:05.794Z,17.80
2019-02-15T13:15:35.222Z,17.90
2019-02-15T13:18:04.669Z,18.00
2019-02-15T13:20:34.100Z,17.90
2019-02-15T13:23:03.554Z,17.90
2019-02-15T13:25:36.741Z,17.90
2019-02-15T13:28:04.192Z,17.90
2019-02-15T13:30:33.626Z,18.00
2019-02-15T13:33:03.126Z,18.00
2019-02-15T13:35:32.538Z,18.10
2019-02-15T13:38:02.008Z,18.10
2019-02-15T13:40:31.442Z,18.10
2019-02-15T13:43:00.922Z,18.10
2019-02-15T13:45:30.353Z,18.20
2019-02-15T13:47:59.839Z,18.30
2019-02-15T13:50:29.265Z,18.20
2019-02-15T13:52:58.731Z,18.00
2019-02-15T13:55:28.199Z,17.90
2019-02-15T13:57:57.655Z,17.80
2019-02-15T14:00:27.140Z,17.70
2019-02-15T14:02:56.626Z,17.70
2019-02-15T14:05:26.063Z,17.80
2019-02-15T14:07:55.541Z,17.90
2019-02-15T14:10:24.987Z,17.90
2019-02-15T14:12:54.475Z,17.80
2019-02-15T14:15:23.918Z,17.70
2019-02-15T14:17:53.366Z,17.60
2019-02-15T14:20:22.878Z,17.40
2019-02-15T14:22:52.323Z,17.30
2019-02-15T14:25:21.786Z,17.30
2019-02-15T14:27:51.214Z,17.30
2019-02-15T14:30:20.677Z,17.30
2019-02-15T14:32:50.965Z,17.30
2019-02-15T14:35:20.451Z,17.30
2019-02-15T14:37:49.879Z,17.30
2019-02-15T14:40:19.366Z,17.40
2019-02-15T14:42:49.402Z,17.30
2019-02-15T14:45:19.162Z,17.20
2019-02-15T14:47:55.003Z,17.10
2019-02-15T14:50:19.775Z,17.10
2019-02-15T14:52:49.219Z,17.10
2019-02-15T14:55:18.684Z,17.00
2019-02-15T14:57:48.105Z,17.10
2019-02-15T15:00:17.639Z,17.00
2019-02-15T15:02:47.090Z,16.90
2019-02-15T15:05:16.555Z,16.90
2019-02-15T15:07:45.982Z,16.80
2019-02-15T15:10:15.451Z,16.60
2019-02-15T15:12:44.875Z,16.40
2019-02-15T15:15:17.703Z,16.20
2019-02-15T15:17:47.221Z,15.80
2019-02-15T15:20:16.945Z,15.50
2019-02-15T15:22:46.433Z,15.20
2019-02-15T15:25:16.514Z,14.90
2019-02-15T15:27:46.020Z,14.60
2019-02-15T15:30:16.509Z,14.40
2019-02-15T15:32:45.949Z,14.10
2019-02-15T15:35:15.421Z,14.00
2019-02-15T15:37:44.852Z,13.80
2019-02-15T15:40:17.091Z,13.70
2019-02-15T15:42:46.551Z,13.50
2019-02-15T15:45:16.027Z,13.40
2019-02-15T15:47:45.460Z,13.30
2019-02-15T15:50:15.072Z,13.20
2019-02-15T15:52:44.502Z,13.10
2019-02-15T15:55:14.604Z,12.90
2019-02-15T15:57:44.043Z,12.90
2019-02-15T16:00:16.939Z,12.70
2019-02-15T16:02:46.394Z,12.70
2019-02-15T16:05:15.849Z,12.60
2019-02-15T16:07:45.274Z,12.50
2019-02-15T16:10:15.750Z,12.40
2019-02-15T16:12:45.199Z,12.40
2019-02-15T16:15:16.073Z,12.40
2019-02-15T16:17:45.576Z,12.30
2019-02-15T16:20:15.369Z,12.20
2019-02-15T16:22:44.894Z,12.20
2019-02-15T16:25:14.358Z,12.10
2019-02-15T16:27:43.805Z,12.00
2019-02-15T16:30:17.059Z,11.90
2019-02-15T16:32:46.502Z,11.90
2019-02-15T16:35:15.958Z,11.90
2019-02-15T16:37:45.434Z,11.90
2019-02-15T16:40:16.180Z,11.80
2019-02-15T16:42:45.612Z,11.70
2019-02-15T16:45:18.320Z,11.70
2019-02-15T16:47:47.756Z,11.60
2019-02-15T16:50:17.217Z,11.50
2019-02-15T16:52:46.643Z,11.50
2019-02-15T16:55:16.122Z,11.40
2019-02-15T16:57:45.576Z,11.30
2019-02-15T17:00:15.467Z,11.20
2019-02-15T17:02:44.947Z,11.10
2019-02-15T17:05:14.436Z,11.00
2019-02-15T17:07:43.882Z,10.90
2019-02-15T17:10:13.481Z,10.90
2019-02-15T17:12:42.927Z,10.80
2019-02-15T17:15:15.874Z,10.80
2019-02-15T17:17:45.313Z,10.70
2019-02-15T17:20:14.801Z,10.70
2019-02-15T17:22:44.238Z,10.60
2019-02-15T17:25:13.722Z,10.50
2019-02-15T17:27:43.158Z,10.40
2019-02-15T17:30:13.050Z,10.40
2019-02-15T17:32:42.491Z,10.40
2019-02-15T17:35:12.583Z,10.30
2019-02-15T17:37:42.038Z,10.30
2019-02-15T17:40:16.823Z,10.30
2019-02-15T17:42:46.254Z,10.20
2019-02-15T17:45:15.708Z,10.10
2019-02-15T17:47:45.147Z,10.10
2019-02-15T17:50:14.857Z,10.10
2019-02-15T17:52:44.273Z,10.00
2019-02-15T17:55:13.764Z,9.90
2019-02-15T17:57:43.265Z,9.80
2019-02-15T18:00:16.663Z,9.80
2019-02-15T18:02:46.110Z,9.70
2019-02-15T18:05:18.470Z,9.60
2019-02-15T18:07:50.067Z,9.50
2019-02-15T18:10:19.584Z,9.50
2019-02-15T18:12:49.053Z,9.50
2019-02-15T18:15:18.457Z,9.50
2019-02-15T18:17:47.914Z,9.50
2019-02-15T18:20:17.328Z,9.40
2019-02-15T18:22:46.784Z,9.40
2019-02-15T18:25:16.230Z,9.40
2019-02-15T18:27:47.157Z,9.40
2019-02-15T18:30:17.398Z,9.30
2019-02-15T18:32:46.859Z,9.20
2019-02-15T18:35:16.365Z,9.20
2019-02-15T18:37:45.842Z,9.10
2019-02-15T18:40:15.251Z,9.10
2019-02-15T18:42:44.717Z,9.00
2019-02-15T18:45:16.719Z,9.00
2019-02-15T18:47:47.350Z,9.00
2019-02-15T18:50:16.783Z,8.90
2019-02-15T18:52:46.303Z,8.90
2019-02-15T18:55:15.733Z,8.80
2019-02-15T18:57:45.181Z,8.70
2019-02-15T19:00:16.378Z,8.60
2019-02-15T19:02:48.739Z,8.50
2019-02-15T19:05:18.167Z,8.50
2019-02-15T19:07:47.619Z,8.40
2019-02-15T19:10:22.298Z,8.30
2019-02-15T19:12:51.768Z,8.30
2019-02-15T19:15:21.196Z,8.20
2019-02-15T19:17:50.673Z,8.20
2019-02-15T19:20:20.163Z,8.20
2019-02-15T19:22:49.651Z,8.10
2019-02-15T19:25:20.823Z,8.00
2019-02-15T19:27:50.288Z,7.90
2019-02-15T19:30:30.385Z,7.90
2019-02-15T19:32:59.828Z,7.90
2019-02-15T19:35:29.265Z,7.90
2019-02-15T19:37:58.726Z,7.90
2019-02-15T19:40:28.157Z,7.80
2019-02-15T19:43:05.114Z,7.80
2019-02-15T19:45:34.554Z,7.80
2019-02-15T19:48:04.014Z,7.70
2019-02-15T19:50:33.441Z,7.70
2019-02-15T19:53:02.980Z,7.60
2019-02-15T19:55:32.478Z,7.60
2019-02-15T19:58:01.890Z,7.50
2019-02-15T20:00:31.297Z,7.50
2019-02-15T20:03:00.750Z,7.50
2019-02-15T20:05:30.186Z,7.40
2019-02-15T20:07:59.754Z,7.40
2019-02-15T20:10:29.567Z,7.40
2019-02-15T20:13:00.779Z,7.40
2019-02-15T20:15:30.175Z,7.40
2019-02-15T20:17:59.626Z,7.40
2019-02-15T20:20:29.053Z,7.40
2019-02-15T20:22:58.547Z,7.30
2019-02-15T20:25:27.965Z,7.30
2019-02-15T20:27:57.393Z,7.30
2019-02-15T20:30:26.842Z,7.30
2019-02-15T20:32:56.305Z,7.20
2019-02-15T20:35:25.736Z,7.10
2019-02-15T20:37:55.184Z,7.00
2019-02-15T20:40:24.681Z,6.90
2019-02-15T20:42:54.139Z,6.80
2019-02-15T20:45:24.206Z,6.70
2019-02-15T20:47:53.671Z,6.70
2019-02-15T20:50:23.171Z,6.70
2019-02-15T20:52:52.638Z,6.70
2019-02-15T20:55:22.079Z,6.60
2019-02-15T20:57:51.554Z,6.60
2019-02-15T21:00:26.597Z,6.60
2019-02-15T21:02:56.046Z,6.60
2019-02-15T21:05:25.498Z,6.50
2019-02-15T21:07:54.961Z,6.50
2019-02-15T21:10:24.466Z,6.50
2019-02-15T21:12:53.916Z,6.40
2019-02-15T21:15:24.302Z,6.40
2019-02-15T21:17:53.898Z,6.40
2019-02-15T21:20:24.704Z,6.40
2019-02-15T21:22:54.261Z,6.40
2019-02-15T21:25:23.691Z,6.30
2019-02-15T21:27:53.150Z,6.30
2019-02-15T21:30:22.580Z,6.30
2019-02-15T21:32:52.042Z,6.30
2019-02-15T21:35:21.474Z,6.20
2019-02-15T21:37:50.916Z,6.20
2019-02-15T21:40:20.407Z,6.20
2019-02-15T21:42:52.005Z,6.20
2019-02-15T21:45:21.031Z,6.20
2019-02-15T21:47:50.480Z,6.20
2019-02-15T21:50:19.940Z,6.20
2019-02-15T21:52:49.406Z,6.20
2019-02-15T21:55:18.846Z,6.20
2019-02-15T21:57:48.293Z,6.20
2019-02-15T22:00:23.702Z,6.20
2019-02-15T22:02:53.163Z,6.20
2019-02-15T22:05:22.607Z,6.10
2019-02-15T22:07:52.069Z,6.10
2019-02-15T22:10:21.503Z,6.10
2019-02-15T22:12:50.950Z,6.00
2019-02-15T22:15:20.379Z,6.00
2019-02-15T22:17:49.842Z,5.90
2019-02-15T22:20:26.412Z,5.90
2019-02-15T22:22:50.460Z,5.80
2019-02-15T22:25:19.872Z,5.80
2019-02-15T22:27:49.318Z,5.80
2019-02-15T22:30:21.870Z,5.70
2019-02-15T22:32:51.309Z,5.70
2019-02-15T22:35:20.758Z,5.70
2019-02-15T22:37:50.231Z,5.70
2019-02-15T22:40:30.814Z,5.70
2019-02-15T22:43:13.059Z,5.70
2019-02-15T22:45:42.492Z,5.70
2019-02-15T22:48:12.027Z,5.70
2019-02-15T22:50:41.448Z,5.70
2019-02-15T22:53:10.897Z,5.80
2019-02-15T22:55:40.331Z,5.80
2019-02-15T22:58:09.772Z,5.80
2019-02-15T23:00:54.248Z,5.80
2019-02-15T23:03:26.394Z,5.80
2019-02-15T23:05:55.965Z,5.70
2019-02-15T23:08:25.580Z,5.60
2019-02-15T23:10:55.016Z,5.50
2019-02-15T23:13:24.467Z,5.40
2019-02-15T23:15:53.904Z,5.30
2019-02-15T23:18:23.360Z,5.30
2019-02-15T23:20:52.793Z,5.20
2019-02-15T23:23:22.256Z,5.30
2019-02-15T23:25:51.690Z,5.20
2019-02-15T23:28:21.136Z,5.20
2019-02-15T23:30:50.560Z,5.20
2019-02-15T23:33:20.030Z,5.20
2019-02-15T23:35:49.453Z,5.10
2019-02-15T23:38:18.923Z,5.10
2019-02-15T23:40:48.336Z,5.20
2019-02-15T23:43:17.771Z,5.20
2019-02-15T23:45:47.192Z,5.20
2019-02-15T23:48:16.641Z,5.10
2019-02-15T23:50:54.206Z,5.10
2019-02-15T23:53:17.233Z,5.10
2019-02-15T23:55:46.674Z,5.10
2019-02-15T23:58:16.124Z,5.10
